Time;durP1;ratioP1;P1;durP2;ratioP2;P2;SDS_P1;SDS_P2;PMS_P1;PMS_P2;Temp;Humidity;BMP_temperature;BMP_pressure;BME280_temperature;BME280_humidity;BME280_pressure;Samples;Min_cycle;Max_cycle;Signal;HPM_P1;HPM_P2
2023/09/12 00:01:26;;;;;;;2.30;1.85;;;;;;;20.36;95.18;98166.34;4129580;28;20304;-86
2023/09/12 00:03:28;;;;;;;1.73;1.63;;;;;;;20.30;95.61;98154.56;4141891;28;20696;-88
2023/09/12 00:05:30;;;;;;;2.42;1.80;;;;;;;20.24;95.22;98160.59;4132047;28;20216;-86
2023/09/12 00:07:31;;;;;;;2.15;1.95;;;;;;;20.22;94.72;98158.13;4123786;28;20205;-86
2023/09/12 00:09:33;;;;;;;2.97;2.17;;;;;;;20.26;94.41;98158.31;4137245;28;20222;-87
2023/09/12 00:11:35;;;;;;;2.75;2.55;;;;;;;20.29;94.99;98166.00;4146460;28;20761;-86
2023/09/12 00:13:40;;;;;;;2.17;1.85;;;;;;;20.37;95.00;98166.03;4141333;28;20232;-86
2023/09/12 00:15:54;;;;;;;1.55;1.30;;;;;;;20.39;94.87;98168.50;4141031;28;20203;-86
2023/09/12 00:17:55;;;;;;;1.60;1.50;;;;;;;20.30;94.57;98164.88;4129753;28;20205;-86
2023/09/12 00:19:58;;;;;;;2.25;1.98;;;;;;;20.29;95.35;98168.78;4121737;28;20202;-87
2023/09/12 00:21:59;;;;;;;1.50;1.40;;;;;;;20.21;95.90;98161.22;4130449;28;20712;-87
2023/09/12 00:24:01;;;;;;;3.63;3.08;;;;;;;20.10;95.07;98160.69;4156092;28;20198;-86
2023/09/12 00:26:02;;;;;;;2.28;1.85;;;;;;;20.16;95.66;98153.88;4130148;28;20236;-86
2023/09/12 00:28:04;;;;;;;2.22;2.03;;;;;;;20.20;95.21;98148.47;4126227;28;20252;-86
2023/09/12 00:30:06;;;;;;;1.75;1.55;;;;;;;20.16;95.09;98147.47;4143574;28;20255;-86
2023/09/12 00:32:08;;;;;;;1.05;0.95;;;;;;;20.16;95.40;98147.47;4123457;28;20226;-86
2023/09/12 00:34:09;;;;;;;1.77;1.52;;;;;;;20.20;95.83;98142.94;4123878;28;20707;-85
2023/09/12 00:36:11;;;;;;;1.95;1.77;;;;;;;20.18;95.82;98145.22;4124070;28;20651;-86
2023/09/12 00:38:13;;;;;;;4.50;2.75;;;;;;;20.13;96.23;98142.56;4156744;28;20215;-86
2023/09/12 00:40:14;;;;;;;4.82;1.83;;;;;;;20.07;96.33;98138.28;4120983;28;20260;-87
2023/09/12 00:42:26;;;;;;;6.10;2.45;;;;;;;20.17;96.38;98129.69;4173221;28;20232;-90
2023/09/12 00:44:28;;;;;;;2.35;2.15;;;;;;;20.05;96.77;98129.44;4122862;28;20722;-86
2023/09/12 00:46:30;;;;;;;4.55;2.72;;;;;;;19.86;97.24;98128.84;4126363;28;20253;-86
2023/09/12 00:48:32;;;;;;;1.50;1.40;;;;;;;19.79;97.33;98134.03;4152500;28;20400;-86
2023/09/12 00:50:33;;;;;;;3.05;2.83;;;;;;;19.77;98.09;98122.44;4122570;28;20226;-86
2023/09/12 00:52:36;;;;;;;2.15;1.90;;;;;;;19.83;98.33;98126.69;4121490;28;20240;-86
2023/09/12 00:54:39;;;;;;;5.55;1.67;;;;;;;19.75;98.68;98130.25;4133005;28;20603;-86
2023/09/12 00:56:41;;;;;;;2.17;2.00;;;;;;;19.76;98.99;98126.34;4138040;28;20260;-87
2023/09/12 00:58:43;;;;;;;2.65;2.22;;;;;;;19.77;99.10;98122.44;4133043;28;20236;-87
2023/09/12 01:00:45;;;;;;;1.40;1.30;;;;;;;19.80;98.79;98119.03;4151238;28;20292;-86
2023/09/12 01:02:54;;;;;;;2.78;2.50;;;;;;;19.93;99.39;98109.78;4130506;28;20276;-88
2023/09/12 01:04:56;;;;;;;3.20;2.92;;;;;;;19.46;100.00;98111.28;4119444;28;20209;-87
2023/09/12 01:06:57;;;;;;;2.30;2.10;;;;;;;19.41;100.00;98105.91;4127296;28;20573;-87
2023/09/12 01:09:00;;;;;;;6.15;2.33;;;;;;;19.17;100.00;98112.88;4156234;28;20858;-86
2023/09/12 01:11:02;;;;;;;1.92;1.70;;;;;;;19.29;100.00;98105.66;4122847;28;20217;-86
2023/09/12 01:13:04;;;;;;;1.55;1.45;;;;;;;19.37;100.00;98118.75;4156715;28;20239;-87
2023/09/12 01:15:13;;;;;;;2.22;1.95;;;;;;;19.44;100.00;98110.00;4144371;28;20415;-89
2023/09/12 01:17:14;;;;;;;2.55;2.35;;;;;;;19.45;100.00;98115.22;4130545;28;20242;-86
2023/09/12 01:19:17;;;;;;;4.25;3.00;;;;;;;19.50;100.00;98114.25;4147272;28;20691;-86
2023/09/12 01:21:41;;;;;;;8.52;2.45;;;;;;;19.52;100.00;98120.34;4130551;28;20257;-87
2023/09/12 01:24:10;;;;;;;2.55;2.17;;;;;;;19.54;100.00;98118.88;4140236;28;20811;-87
2023/09/12 01:26:27;;;;;;;5.97;1.63;;;;;;;19.60;100.00;98133.44;4118061;28;20206;-86
2023/09/12 01:28:34;;;;;;;2.50;1.67;;;;;;;19.71;100.00;98129.28;4159248;28;20242;-87
2023/09/12 01:30:38;;;;;;;1.83;1.58;;;;;;;19.72;99.93;98133.69;4137898;28;20714;-86
2023/09/12 01:32:39;;;;;;;1.40;1.30;;;;;;;19.72;99.71;98133.69;4124220;28;20324;-87
2023/09/12 01:34:41;;;;;;;2.88;2.08;;;;;;;19.64;99.54;98126.13;4174243;28;20204;-86
2023/09/12 01:36:45;;;;;;;1.30;1.20;;;;;;;19.67;99.37;98126.31;4142232;28;20215;-86
2023/09/12 01:38:47;;;;;;;1.50;1.40;;;;;;;19.67;99.57;98122.69;4124408;28;20276;-89
2023/09/12 01:40:53;;;;;;;2.17;1.98;;;;;;;19.58;99.19;98121.84;4158670;28;20200;-87
2023/09/12 01:42:55;;;;;;;1.70;1.60;;;;;;;19.60;99.56;98111.22;4126306;28;20265;-88
2023/09/12 01:44:57;;;;;;;4.35;2.47;;;;;;;19.66;99.29;98121.88;4157000;28;20211;-86
2023/09/12 01:47:04;;;;;;;2.30;1.65;;;;;;;19.56;99.56;98115.75;4124831;28;20201;-87
2023/09/12 01:49:07;;;;;;;1.80;1.67;;;;;;;19.49;99.79;98113.47;4153591;28;20207;-87
2023/09/12 01:51:09;;;;;;;2.40;2.10;;;;;;;19.49;99.56;98112.63;4140620;28;20225;-86
2023/09/12 01:53:11;;;;;;;2.22;2.03;;;;;;;19.49;99.89;98109.84;4157829;28;20213;-88
2023/09/12 01:55:13;;;;;;;2.08;1.88;;;;;;;19.53;100.00;98110.88;4154841;28;20257;-86
2023/09/12 01:57:15;;;;;;;1.73;1.58;;;;;;;19.53;99.89;98111.69;4124201;28;20205;-86
2023/09/12 01:59:16;;;;;;;2.67;2.05;;;;;;;19.41;100.00;98107.84;4124456;28;20229;-87
2023/09/12 02:01:18;;;;;;;1.67;1.30;;;;;;;19.49;100.00;98107.06;4139509;28;20228;-86
2023/09/12 02:03:20;;;;;;;2.80;2.28;;;;;;;19.46;100.00;98097.41;4134470;28;20252;-87
2023/09/12 02:05:23;;;;;;;7.80;1.88;;;;;;;19.45;100.00;98111.63;4126190;28;20277;-87
2023/09/12 02:07:26;;;;;;;2.20;1.83;;;;;;;19.46;100.00;98104.94;4121248;28;20297;-87
2023/09/12 02:09:28;;;;;;;2.42;1.63;;;;;;;19.47;100.00;98101.03;4136341;28;20205;-87
2023/09/12 02:11:30;;;;;;;2.97;2.67;;;;;;;19.48;100.00;98099.88;4156805;28;20699;-89
2023/09/12 02:13:31;;;;;;;3.10;2.72;;;;;;;19.45;100.00;98092.22;4141233;28;20204;-86
2023/09/12 02:15:33;;;;;;;2.53;2.20;;;;;;;19.45;100.00;98103.31;4123499;28;20707;-86
2023/09/12 02:17:42;;;;;;;2.97;1.88;;;;;;;19.40;100.00;98111.75;4139720;28;20205;-87
2023/09/12 02:19:47;;;;;;;2.92;2.35;;;;;;;19.36;100.00;98110.75;4125904;28;20197;-88
2023/09/12 02:21:49;;;;;;;2.55;2.35;;;;;;;19.36;100.00;98105.19;4138495;28;20245;-87
2023/09/12 02:23:51;;;;;;;1.70;1.35;;;;;;;19.40;100.00;98100.66;4124049;28;20202;-87
2023/09/12 02:25:53;;;;;;;2.35;2.00;;;;;;;19.39;100.00;98099.03;4138781;28;20223;-87
2023/09/12 02:27:55;;;;;;;2.20;2.00;;;;;;;19.42;100.00;98095.59;4122901;28;20202;-86
2023/09/12 02:29:56;;;;;;;2.08;1.95;;;;;;;19.37;100.00;98090.22;4154558;28;20738;-86
2023/09/12 02:31:58;;;;;;;4.95;1.88;;;;;;;19.44;100.00;98090.56;4124708;28;20229;-87
2023/09/12 02:34:06;;;;;;;3.75;2.38;;;;;;;19.42;100.00;98088.09;4122272;28;20209;-87
2023/09/12 02:36:07;;;;;;;4.00;2.45;;;;;;;18.99;100.00;98091.69;4135777;28;20288;-86
2023/09/12 02:38:09;;;;;;;5.85;2.92;;;;;;;19.10;100.00;98084.72;4120000;28;21326;-87
2023/09/12 02:40:11;;;;;;;1.90;1.70;;;;;;;19.12;100.00;98082.47;4138045;28;20275;-86
2023/09/12 02:42:13;;;;;;;2.45;1.67;;;;;;;19.17;100.00;98093.47;4124344;28;21097;-86
2023/09/12 02:44:15;;;;;;;1.73;1.63;;;;;;;19.19;100.00;98089.22;4143491;28;20205;-88
2023/09/12 02:46:17;;;;;;;1.88;1.60;;;;;;;19.19;100.00;98083.66;4123639;28;20297;-85
2023/09/12 02:48:18;;;;;;;1.92;1.77;;;;;;;19.13;100.00;98084.13;4154744;28;20208;-87
2023/09/12 02:50:20;;;;;;;2.42;1.50;;;;;;;19.13;100.00;98078.56;4139441;28;20260;-87
2023/09/12 02:52:21;;;;;;;3.13;1.90;;;;;;;19.14;100.00;98075.50;4155066;28;20278;-86
2023/09/12 02:54:23;;;;;;;1.98;1.77;;;;;;;19.18;100.00;98075.69;4126966;28;20293;-87
2023/09/12 02:56:24;;;;;;;1.50;1.40;;;;;;;19.24;100.00;98080.00;4121499;28;20214;-87
2023/09/12 02:58:26;;;;;;;2.03;1.83;;;;;;;19.27;100.00;98082.13;4130950;28;20288;-86
2023/09/12 03:00:39;;;;;;;4.05;2.80;;;;;;;19.40;100.00;98084.00;4163653;28;20278;-86
2023/09/12 03:02:41;;;;;;;6.80;1.58;;;;;;;19.42;100.00;98076.16;4130638;28;20631;-87
2023/09/12 03:04:43;;;;;;;1.40;1.30;;;;;;;19.35;100.00;98079.41;4142328;28;20208;-88
2023/09/12 03:06:44;;;;;;;4.18;1.48;;;;;;;19.38;100.00;98080.75;4144237;28;20236;-86
2023/09/12 03:08:47;;;;;;;2.58;2.38;;;;;;;19.40;100.00;98079.28;4120479;28;20205;-87
2023/09/12 03:10:56;;;;;;;3.38;2.55;;;;;;;19.42;100.00;98084.50;4140605;28;20222;-87
2023/09/12 03:12:58;;;;;;;3.55;2.33;;;;;;;19.44;100.00;98085.03;4129692;28;20218;-86
2023/09/12 03:15:08;;;;;;;1.63;1.52;;;;;;;19.45;100.00;98089.44;4138645;28;20692;-85
2023/09/12 03:17:11;;;;;;;2.40;2.10;;;;;;;19.50;100.00;98090.09;4172930;28;20212;-88
2023/09/12 03:19:13;;;;;;;2.10;1.90;;;;;;;19.54;100.00;98095.84;4147507;28;20212;-87
2023/09/12 03:21:14;;;;;;;1.92;1.70;;;;;;;19.45;100.00;98098.56;4126752;28;20217;-86
2023/09/12 03:23:16;;;;;;;2.33;2.13;;;;;;;19.42;100.00;98095.59;4171361;28;20239;-86
2023/09/12 03:25:18;;;;;;;1.92;1.83;;;;;;;19.40;100.00;98089.56;4129007;28;20224;-87
2023/09/12 03:27:21;;;;;;;1.60;1.50;;;;;;;19.56;100.00;98088.00;4139619;28;20279;-86
2023/09/12 03:29:33;;;;;;;2.22;2.05;;;;;;;19.27;100.00;98085.72;4136795;28;20618;-87
2023/09/12 03:31:35;;;;;;;2.58;1.52;;;;;;;19.36;100.00;98091.31;4139894;28;20333;-87
2023/09/12 03:33:37;;;;;;;1.38;1.27;;;;;;;19.46;100.00;98093.84;4127334;28;20293;-86
2023/09/12 03:35:39;;;;;;;2.30;2.10;;;;;;;19.22;100.00;98091.41;4141381;28;20227;-89
2023/09/12 03:37:42;;;;;;;1.88;1.77;;;;;;;19.38;100.00;98091.84;4140482;28;20272;-87
2023/09/12 03:39:44;;;;;;;3.22;1.80;;;;;;;19.37;100.00;98084.66;4132098;28;20283;-88
2023/09/12 03:41:46;;;;;;;1.48;1.30;;;;;;;19.40;100.00;98084.84;4140256;28;20224;-87
2023/09/12 03:43:47;;;;;;;7.32;2.15;;;;;;;19.39;100.00;98087.91;4141620;28;20944;-87
2023/09/12 03:45:49;;;;;;;2.53;2.33;;;;;;;19.39;100.00;98088.72;4127498;28;20205;-86
2023/09/12 03:48:08;;;;;;;2.55;2.10;;;;;;;19.37;100.00;98085.47;4128317;28;20288;-87
2023/09/12 03:50:10;;;;;;;1.95;1.75;;;;;;;19.35;100.00;98086.91;4142864;28;20778;-87
2023/09/12 03:52:12;;;;;;;1.98;1.80;;;;;;;19.36;100.00;98091.31;4147035;28;20318;-86
2023/09/12 03:54:14;;;;;;;1.60;1.50;;;;;;;19.35;100.00;98093.28;4144723;28;20215;-87
2023/09/12 03:56:33;;;;;;;2.90;2.28;;;;;;;19.35;100.00;98098.00;4123832;28;20221;-87
2023/09/12 03:58:35;;;;;;;1.75;1.65;;;;;;;19.34;100.00;98097.19;4140315;28;20636;-87
2023/09/12 04:00:40;;;;;;;1.90;1.80;;;;;;;19.36;100.00;98083.00;4160004;28;20192;-89
2023/09/12 04:02:41;;;;;;;1.58;1.48;;;;;;;19.37;100.00;98090.22;4129518;28;20236;-87
2023/09/12 04:04:52;;;;;;;2.45;2.03;;;;;;;19.36;100.00;98094.09;4127499;28;20228;-87
2023/09/12 04:06:56;;;;;;;1.65;1.45;;;;;;;19.32;100.00;98087.56;4164059;28;20286;-87
2023/09/12 04:08:58;;;;;;;2.88;1.83;;;;;;;19.32;100.00;98093.09;4128803;28;20611;-88
2023/09/12 04:11:00;;;;;;;9.93;2.25;;;;;;;19.34;100.00;98096.38;4124427;28;20241;-88
2023/09/12 04:13:02;;;;;;;6.43;2.72;;;;;;;19.29;100.00;98104.81;4139083;28;20255;-88
2023/09/12 04:15:06;;;;;;;3.28;2.97;;;;;;;19.26;100.00;98097.13;4139584;28;20251;-87
2023/09/12 04:17:08;;;;;;;3.88;2.00;;;;;;;19.23;100.00;98095.81;4156866;28;20220;-87
2023/09/12 04:19:20;;;;;;;1.73;1.63;;;;;;;19.23;100.00;98106.06;4153475;28;21256;-88
2023/09/12 04:21:22;;;;;;;3.10;1.85;;;;;;;19.22;100.00;98096.13;4121248;28;20221;-88
2023/09/12 04:23:25;;;;;;;1.70;1.60;;;;;;;19.30;100.00;98095.34;4124486;28;20596;-89
2023/09/12 04:25:27;;;;;;;2.92;1.88;;;;;;;19.19;100.00;98094.75;4140849;28;20628;-88
2023/09/12 04:27:29;;;;;;;2.13;1.40;;;;;;;19.13;100.00;98089.66;4125170;28;20222;-91
2023/09/12 04:29:33;;;;;;;2.47;2.28;;;;;;;19.15;100.00;98090.16;4122578;28;20212;-88
2023/09/12 04:31:38;;;;;;;2.20;1.95;;;;;;;19.08;100.00;98098.94;4130464;28;20324;-89
2023/09/12 04:33:51;;;;;;;1.60;1.50;;;;;;;19.05;100.00;98094.00;4125626;28;20209;-87
2023/09/12 04:35:53;;;;;;;1.73;1.63;;;;;;;19.07;100.00;98096.47;4165862;28;20308;-88
2023/09/12 04:37:55;;;;;;;2.50;2.25;;;;;;;19.09;100.00;98088.66;4143150;28;20263;-89
2023/09/12 04:39:57;;;;;;;2.00;1.90;;;;;;;18.96;100.00;98089.53;4132624;28;20214;-88
2023/09/12 04:42:00;;;;;;;2.53;2.10;;;;;;;18.96;100.00;98095.91;4150310;28;20674;-88
2023/09/12 04:44:02;;;;;;;1.92;1.80;;;;;;;19.10;100.00;98084.72;4131566;28;20260;-85
2023/09/12 04:46:04;;;;;;;3.15;2.42;;;;;;;18.74;100.00;98086.75;4159341;28;20287;-87
2023/09/12 04:48:06;;;;;;;2.72;2.03;;;;;;;18.78;100.00;98083.03;4129829;28;20706;-85
2023/09/12 04:50:21;;;;;;;3.03;2.70;;;;;;;18.69;100.00;98078.53;4131731;28;20197;-87
2023/09/12 04:52:22;;;;;;;2.22;2.03;;;;;;;18.69;100.00;98084.06;4123018;28;20221;-85
2023/09/12 04:54:25;;;;;;;2.40;1.90;;;;;;;18.69;100.00;98073.00;4143603;28;20295;-86
2023/09/12 04:56:26;;;;;;;2.00;1.88;;;;;;;18.55;100.00;98080.53;4143694;28;20213;-86
2023/09/12 04:58:28;;;;;;;3.80;2.72;;;;;;;18.41;100.00;98076.97;4127517;28;20238;-87
2023/09/12 05:00:30;;;;;;;3.03;2.70;;;;;;;18.41;100.00;98079.75;4145742;28;20715;-85
2023/09/12 05:02:32;;;;;;;1.63;1.35;;;;;;;18.45;100.00;98078.00;4148216;28;20609;-87
2023/09/12 05:04:34;;;;;;;1.65;1.55;;;;;;;18.46;100.00;98079.63;4160280;28;20646;-88
2023/09/12 05:06:36;;;;;;;2.97;2.38;;;;;;;18.53;100.00;98072.50;4128563;28;20241;-87
2023/09/12 05:08:38;;;;;;;3.00;2.40;;;;;;;18.54;100.00;98081.66;4125262;28;20234;-87
2023/09/12 05:10:53;;;;;;;2.35;1.42;;;;;;;18.54;100.00;98076.13;4141107;28;20732;-86
2023/09/12 05:12:58;;;;;;;2.30;2.20;;;;;;;18.58;100.00;98085.47;4137729;28;20212;-87
2023/09/12 05:15:00;;;;;;;1.70;1.60;;;;;;;18.58;100.00;98072.41;4132072;28;20209;-88
2023/09/12 05:17:13;;;;;;;2.28;2.00;;;;;;;18.64;100.00;98075.91;4130274;28;20214;-88
2023/09/12 05:19:14;;;;;;;2.10;1.92;;;;;;;18.65;100.00;98072.00;4125608;28;20206;-91
2023/09/12 05:21:16;;;;;;;3.30;2.88;;;;;;;18.57;100.00;98081.84;4175272;28;20251;-91
2023/09/12 05:23:18;;;;;;;6.65;2.83;;;;;;;18.58;100.00;98079.91;4177833;28;20217;-88
2023/09/12 05:25:20;;;;;;;2.20;2.00;;;;;;;18.67;100.00;98080.81;4159441;28;20203;-88
2023/09/12 05:27:22;;;;;;;1.30;1.10;;;;;;;18.65;100.00;98088.63;4173810;28;20200;-87
2023/09/12 05:29:25;;;;;;;1.75;1.65;;;;;;;18.67;100.00;98098.28;4126575;28;20762;-87
2023/09/12 05:31:28;;;;;;;2.08;1.88;;;;;;;18.73;100.00;98102.53;4118270;28;20237;-87
2023/09/12 05:33:49;;;;;;;1.80;1.63;;;;;;;18.76;100.00;98112.19;4157452;28;20196;-87
2023/09/12 05:35:55;;;;;;;3.55;2.55;;;;;;;18.76;100.00;98115.78;4147784;28;20233;-87
2023/09/12 05:38:02;;;;;;;2.15;1.95;;;;;;;18.81;100.00;98121.22;4142675;28;20260;-87
2023/09/12 05:40:12;;;;;;;3.47;3.00;;;;;;;18.76;100.00;98123.28;4123538;28;20242;-89
2023/09/12 05:42:20;;;;;;;1.73;1.63;;;;;;;18.77;100.00;98116.63;4138242;28;20777;-88
2023/09/12 05:44:22;;;;;;;2.70;2.42;;;;;;;18.69;100.00;98126.50;4172419;28;20200;-87
2023/09/12 05:46:26;;;;;;;2.30;1.70;;;;;;;18.71;100.00;98127.00;4138744;28;20267;-90
2023/09/12 05:48:36;;;;;;;2.25;1.90;;;;;;;18.70;100.00;98136.44;4139208;28;20219;-87
2023/09/12 05:50:41;;;;;;;2.13;1.92;;;;;;;18.75;100.00;98130.78;4171501;28;20234;-87
2023/09/12 05:52:44;;;;;;;2.60;1.77;;;;;;;18.76;100.00;98128.81;4154201;23;20263;-45
2023/09/12 05:54:46;;;;;;;2.38;2.08;;;;;;;18.74;100.00;98131.09;4148322;28;20220;-45
2023/09/12 05:56:48;;;;;;;1.88;1.77;;;;;;;18.77;100.00;98136.03;4166750;28;20840;-44
2023/09/12 05:58:50;;;;;;;7.65;1.63;;;;;;;18.73;100.00;98140.56;4148467;28;20309;-45
2023/09/12 06:00:51;;;;;;;1.73;1.60;;;;;;;18.72;100.00;98141.69;4149776;28;20210;-45
2023/09/12 06:02:53;;;;;;;2.60;2.40;;;;;;;18.77;100.00;98141.56;4149433;28;20227;-45
2023/09/12 06:04:55;;;;;;;11.30;2.72;;;;;;;18.78;100.00;98144.03;4150636;28;20223;-45
2023/09/12 06:06:57;;;;;;;10.88;3.42;;;;;;;18.61;100.00;98134.72;4152821;28;20687;-44
2023/09/12 06:08:59;;;;;;;2.75;2.55;;;;;;;18.58;100.00;98138.13;4150912;28;20631;-46
2023/09/12 06:11:01;;;;;;;2.42;2.33;;;;;;;18.63;100.00;98127.72;4154376;28;20231;-44
2023/09/12 06:13:02;;;;;;;10.75;2.40;;;;;;;18.77;100.00;98133.25;4150906;28;20559;-45
2023/09/12 06:15:05;;;;;;;3.20;2.08;;;;;;;18.84;100.00;98125.34;4166120;28;22097;-44
2023/09/12 06:17:07;;;;;;;2.55;2.30;;;;;;;18.98;100.00;98131.66;4148366;28;20704;-45
2023/09/12 06:19:08;;;;;;;2.38;2.17;;;;;;;19.21;100.00;98131.38;4165305;28;20607;-45
2023/09/12 06:21:10;;;;;;;3.13;2.92;;;;;;;19.55;100.00;98119.69;4147803;28;20216;-45
2023/09/12 06:23:12;;;;;;;2.95;2.50;;;;;;;19.80;100.00;98121.78;4156087;28;20213;-45
2023/09/12 06:25:14;;;;;;;5.57;2.85;;;;;;;19.90;100.00;98121.53;4151349;28;20252;-46
2023/09/12 06:27:18;;;;;;;2.70;2.25;;;;;;;20.28;100.00;98117.94;4166046;28;20239;-45
2023/09/12 06:29:21;;;;;;;3.15;2.33;;;;;;;20.60;100.00;98125.88;4149498;28;20208;-45
2023/09/12 06:31:22;;;;;;;8.13;3.13;;;;;;;20.53;100.00;98130.28;4149103;28;20310;-45
2023/09/12 06:33:25;;;;;;;8.20;2.50;;;;;;;21.25;100.00;98136.94;4167981;28;20567;-44
2023/09/12 06:35:27;;;;;;;10.15;3.25;;;;;;;21.49;97.50;98134.44;4152156;28;20211;-44
2023/09/12 06:37:29;;;;;;;2.88;2.63;;;;;;;22.19;92.91;98129.22;4155969;28;20271;-45
2023/09/12 06:39:31;;;;;;;2.08;1.88;;;;;;;22.57;89.66;98141.19;4168166;28;20281;-45
2023/09/12 06:41:33;;;;;;;2.75;2.53;;;;;;;23.23;84.40;98138.28;4152307;28;20223;-45
2023/09/12 06:43:35;;;;;;;3.53;2.47;;;;;;;22.96;83.83;98132.41;4152058;28;20219;-45
2023/09/12 06:45:38;;;;;;;2.72;2.53;;;;;;;23.19;84.70;98139.31;4152633;28;20204;-45
2023/09/12 06:47:40;;;;;;;2.33;1.92;;;;;;;23.80;81.15;98131.66;4150454;28;20267;-46
2023/09/12 06:49:42;;;;;;;2.47;1.42;;;;;;;23.97;79.65;98135.47;4153622;28;20212;-45
2023/09/12 06:51:46;;;;;;;2.47;2.28;;;;;;;24.18;77.26;98139.81;4158740;23;20231;-65
2023/09/12 06:53:51;;;;;;;2.40;2.20;;;;;;;24.31;75.40;98142.28;4147074;28;20242;-64
2023/09/12 06:55:53;;;;;;;1.70;1.60;;;;;;;24.76;75.64;98137.44;4148844;28;20216;-64
2023/09/12 06:57:55;;;;;;;1.13;1.02;;;;;;;24.76;73.58;98143.03;4153363;28;20315;-63
2023/09/12 06:59:57;;;;;;;1.85;1.63;;;;;;;24.85;73.50;98146.50;4154586;28;20227;-64
2023/09/12 07:01:59;;;;;;;2.15;1.50;;;;;;;24.47;76.05;98143.22;4152462;28;20215;-63
2023/09/12 07:04:02;;;;;;;1.70;1.60;;;;;;;24.40;75.59;98150.56;4150587;28;20209;-63
2023/09/12 07:06:05;;;;;;;7.82;2.25;;;;;;;24.67;73.42;98153.50;4149973;28;20211;-65
2023/09/12 07:08:08;;;;;;;5.05;1.95;;;;;;;24.39;76.28;98144.16;4138313;28;20306;-65
2023/09/12 07:10:10;;;;;;;3.17;2.03;;;;;;;23.80;76.13;98142.03;4148459;28;20303;-64
2023/09/12 07:12:28;;;;;;;2.85;2.33;;;;;;;24.53;77.71;98143.81;4146540;28;20225;-64
2023/09/12 07:14:31;;;;;;;2.35;1.75;;;;;;;25.02;72.70;98146.25;4145285;28;20263;-65
2023/09/12 07:16:32;;;;;;;1.30;1.20;;;;;;;25.20;73.05;98144.81;4146151;28;20212;-65
2023/09/12 07:18:34;;;;;;;3.20;2.03;;;;;;;25.00;72.88;98142.97;4153832;28;20319;-65
2023/09/12 07:20:36;;;;;;;5.05;2.78;;;;;;;25.47;71.38;98144.06;4149472;28;20204;-65
2023/09/12 07:22:39;;;;;;;2.33;2.08;;;;;;;25.86;69.32;98145.19;4161901;28;20211;-64
2023/09/12 07:24:41;;;;;;;2.15;1.90;;;;;;;25.82;68.42;98142.28;4148460;28;20624;-64
2023/09/12 07:26:42;;;;;;;4.22;1.48;;;;;;;26.14;68.87;98143.97;4151422;28;20214;-64
2023/09/12 07:28:44;;;;;;;1.95;1.77;;;;;;;26.06;69.22;98146.97;4149177;28;20232;-64
2023/09/12 07:30:46;;;;;;;1.92;1.63;;;;;;;26.36;68.12;98153.78;4149334;28;20208;-64
2023/09/12 07:32:48;;;;;;;2.13;1.70;;;;;;;26.43;68.10;98153.97;4146437;28;20212;-64
2023/09/12 07:34:50;;;;;;;1.92;1.83;;;;;;;26.22;69.04;98157.03;4147440;28;20204;-64
2023/09/12 07:36:51;;;;;;;1.88;1.73;;;;;;;25.32;70.58;98164.41;4146427;28;20240;-64
2023/09/12 07:38:53;;;;;;;7.05;1.77;;;;;;;25.56;71.12;98167.16;4149288;28;20724;-64
2023/09/12 07:40:54;;;;;;;2.95;2.13;;;;;;;25.26;71.56;98163.03;4152593;28;20273;-64
2023/09/12 07:42:56;;;;;;;2.00;1.85;;;;;;;25.84;68.63;98158.72;4154832;28;20204;-64
2023/09/12 07:44:58;;;;;;;2.15;1.90;;;;;;;25.92;68.81;98164.22;4147963;28;20331;-64
2023/09/12 07:46:59;;;;;;;2.40;2.20;;;;;;;26.61;67.20;98164.53;4150256;28;20209;-64
2023/09/12 07:49:01;;;;;;;1.83;1.63;;;;;;;26.27;66.45;98165.19;4164971;28;20691;-64
2023/09/12 07:51:14;;;;;;;3.55;2.08;;;;;;;26.06;67.49;98163.81;4148425;28;20262;-64
2023/09/12 07:53:16;;;;;;;2.72;2.28;;;;;;;26.60;67.88;98162.88;4148062;28;20307;-64
2023/09/12 07:55:18;;;;;;;1.95;1.83;;;;;;;26.44;66.48;98164.00;4149061;28;20235;-64
2023/09/12 07:57:19;;;;;;;5.85;2.45;;;;;;;26.55;66.08;98160.34;4151454;28;20215;-64
2023/09/12 07:59:22;;;;;;;1.88;1.70;;;;;;;26.47;66.91;98163.31;4146831;28;20271;-64
2023/09/12 08:01:23;;;;;;;1.73;1.25;;;;;;;26.54;63.65;98175.56;4151530;28;20578;-64
2023/09/12 08:03:25;;;;;;;9.13;1.67;;;;;;;26.13;63.82;98178.81;4150956;28;20213;-64
2023/09/12 08:05:30;;;;;;;3.33;1.30;;;;;;;26.14;65.59;98169.22;4150165;28;20240;-64
2023/09/12 08:07:31;;;;;;;2.42;1.65;;;;;;;26.24;64.58;98177.13;4149574;28;20232;-64
2023/09/12 08:09:50;;;;;;;2.78;1.77;;;;;;;26.06;65.54;98181.44;4149970;28;20258;-64
2023/09/12 08:11:52;;;;;;;4.32;1.42;;;;;;;26.61;63.83;98186.97;4166079;28;20314;-64
2023/09/12 08:13:53;;;;;;;6.75;1.55;;;;;;;26.22;64.10;98193.53;4152352;28;20235;-64
2023/09/12 08:15:59;;;;;;;1.55;1.30;;;;;;;26.40;64.69;98183.56;4151691;28;20708;-64
2023/09/12 08:18:01;;;;;;;1.73;1.63;;;;;;;27.50;62.35;98194.38;4152382;28;20378;-64
2023/09/12 08:20:03;;;;;;;2.50;1.58;;;;;;;27.63;61.84;98180.97;4171562;28;20208;-64
2023/09/12 08:22:07;;;;;;;2.05;1.25;;;;;;;27.09;62.66;98185.75;4168760;28;20261;-64
2023/09/12 08:24:09;;;;;;;1.27;0.98;;;;;;;27.53;61.86;98185.19;4151546;28;20635;-64
2023/09/12 08:26:10;;;;;;;1.70;1.40;;;;;;;27.44;61.12;98181.78;4151559;28;20262;-64
2023/09/12 08:28:12;;;;;;;1.05;0.90;;;;;;;27.64;61.74;98182.59;4154062;28;20298;-64
2023/09/12 08:30:15;;;;;;;2.10;1.55;;;;;;;26.95;60.91;98177.81;4152452;28;20247;-64
2023/09/12 08:32:17;;;;;;;4.97;2.03;;;;;;;27.21;60.48;98175.25;4149185;28;20756;-64
2023/09/12 08:34:20;;;;;;;2.15;1.45;;;;;;;27.26;61.15;98174.13;4138893;28;20236;-64
2023/09/12 08:36:22;;;;;;;6.68;1.70;;;;;;;26.82;61.16;98175.44;4154651;28;20638;-64
2023/09/12 08:38:24;;;;;;;2.08;1.45;;;;;;;26.74;62.13;98180.09;4150028;28;20223;-64
2023/09/12 08:40:25;;;;;;;10.45;2.42;;;;;;;26.36;64.40;98182.69;4150266;28;20233;-64
2023/09/12 08:42:28;;;;;;;13.52;3.33;;;;;;;26.26;64.30;98180.38;4148476;28;20707;-64
2023/09/12 08:44:29;;;;;;;3.15;2.17;;;;;;;25.74;65.65;98173.28;4154239;28;20581;-64
2023/09/12 08:46:31;;;;;;;1.50;1.40;;;;;;;25.85;66.46;98180.03;4147741;28;20864;-64
2023/09/12 08:48:33;;;;;;;2.83;1.23;;;;;;;25.73;67.04;98188.47;4154047;28;20235;-65
2023/09/12 08:50:35;;;;;;;1.33;1.23;;;;;;;25.78;67.83;98183.41;4166391;28;20257;-65
2023/09/12 08:52:37;;;;;;;2.08;1.85;;;;;;;25.80;66.99;98189.47;4146527;28;20715;-65
2023/09/12 08:54:44;;;;;;;1.52;1.38;;;;;;;25.85;67.82;98192.03;4166134;28;20673;-65
2023/09/12 08:56:46;;;;;;;1.88;1.50;;;;;;;25.44;68.15;98198.03;4151897;28;20583;-65
2023/09/12 08:58:47;;;;;;;2.38;1.83;;;;;;;25.53;68.92;98187.47;4153174;28;20323;-64
2023/09/12 09:00:49;;;;;;;2.58;1.67;;;;;;;25.44;69.62;98192.41;4167257;28;20239;-65
2023/09/12 09:02:51;;;;;;;1.40;1.30;;;;;;;25.55;68.30;98190.75;4153317;28;20209;-64
2023/09/12 09:04:54;;;;;;;5.57;1.65;;;;;;;25.42;67.94;98182.72;4152870;28;20205;-65
2023/09/12 09:06:57;;;;;;;1.50;1.40;;;;;;;25.26;70.55;98187.44;4153977;28;20259;-65
2023/09/12 09:09:00;;;;;;;2.05;1.88;;;;;;;25.14;70.33;98188.22;4151924;28;20232;-65
2023/09/12 09:11:06;;;;;;;1.80;1.70;;;;;;;25.29;69.53;98184.75;4159246;28;20204;-64
2023/09/12 09:13:09;;;;;;;1.85;1.50;;;;;;;25.11;70.38;98188.94;4148852;28;20248;-65
2023/09/12 09:15:22;;;;;;;1.45;1.23;;;;;;;24.81;70.22;98172.75;4168083;28;20551;-64
2023/09/12 09:17:24;;;;;;;1.23;1.13;;;;;;;24.84;71.30;98172.88;4167533;28;20307;-65
2023/09/12 09:19:44;;;;;;;2.22;1.83;;;;;;;24.82;71.47;98180.00;4160102;28;20239;-65
2023/09/12 09:21:46;;;;;;;4.10;2.03;;;;;;;24.93;71.29;98176.38;4169772;28;20605;-64
2023/09/12 09:23:48;;;;;;;1.35;1.25;;;;;;;24.95;72.24;98184.41;4154390;28;20200;-65
2023/09/12 09:25:53;;;;;;;2.10;1.77;;;;;;;25.09;71.44;98190.47;4153532;28;20236;-64
2023/09/12 09:27:54;;;;;;;1.40;1.30;;;;;;;25.05;72.14;98181.94;4154759;28;20204;-63
2023/09/12 09:29:56;;;;;;;4.35;1.70;;;;;;;24.73;72.63;98174.50;4152311;28;20235;-63
2023/09/12 09:31:59;;;;;;;1.70;1.52;;;;;;;25.07;71.98;98176.00;4153823;28;20626;-63
2023/09/12 09:34:03;;;;;;;2.30;1.42;;;;;;;25.18;72.88;98177.97;4167394;28;20208;-63
2023/09/12 09:36:06;;;;;;;1.60;1.50;;;;;;;25.60;70.98;98172.88;4152662;28;20290;-63
2023/09/12 09:38:08;;;;;;;1.63;1.52;;;;;;;25.71;71.22;98180.41;4152070;28;20255;-63